sensor_id;sensor_type;location;lat;lon;timestamp;P1;durP1;ratioP1;P2;durP2;ratioP2
23171;SDS011;11754;42.664;23.594;2022-12-16T00:00:06;170.75;;;56.22;;
23171;SDS011;11754;42.664;23.594;2022-12-16T00:02:51;142.20;;;57.08;;
23171;SDS011;11754;42.664;23.594;2022-12-16T00:05:17;163.27;;;55.20;;
23171;SDS011;11754;42.664;23.594;2022-12-16T00:07:44;157.50;;;54.35;;
23171;SDS011;11754;42.664;23.594;2022-12-16T00:10:12;171.05;;;53.72;;
23171;SDS011;11754;42.664;23.594;2022-12-16T00:12:38;159.77;;;51.47;;
23171;SDS011;11754;42.664;23.594;2022-12-16T00:15:03;180.48;;;56.70;;
23171;SDS011;11754;42.664;23.594;2022-12-16T00:17:29;170.57;;;55.72;;
23171;SDS011;11754;42.664;23.594;2022-12-16T00:19:54;165.60;;;55.22;;
23171;SDS011;11754;42.664;23.594;2022-12-16T00:22:20;157.63;;;55.83;;
23171;SDS011;11754;42.664;23.594;2022-12-16T00:24:45;161.05;;;54.78;;
23171;SDS011;11754;42.664;23.594;2022-12-16T00:27:11;187.07;;;51.90;;
23171;SDS011;11754;42.664;23.594;2022-12-16T00:29:36;145.68;;;53.28;;
23171;SDS011;11754;42.664;23.594;2022-12-16T00:32:01;155.57;;;55.15;;
23171;SDS011;11754;42.664;23.594;2022-12-16T00:34:27;185.88;;;55.72;;
23171;SDS011;11754;42.664;23.594;2022-12-16T00:36:52;153.60;;;51.78;;
23171;SDS011;11754;42.664;23.594;2022-12-16T00:39:18;145.00;;;52.50;;
23171;SDS011;11754;42.664;23.594;2022-12-16T00:41:43;151.57;;;55.30;;
23171;SDS011;11754;42.664;23.594;2022-12-16T00:44:11;156.90;;;56.95;;
23171;SDS011;11754;42.664;23.594;2022-12-16T00:46:37;149.00;;;58.25;;
23171;SDS011;11754;42.664;23.594;2022-12-16T00:49:02;172.80;;;67.05;;
23171;SDS011;11754;42.664;23.594;2022-12-16T00:51:28;150.77;;;57.35;;
23171;SDS011;11754;42.664;23.594;2022-12-16T00:53:53;146.57;;;57.10;;
23171;SDS011;11754;42.664;23.594;2022-12-16T00:56:19;181.65;;;57.63;;
23171;SDS011;11754;42.664;23.594;2022-12-16T00:58:44;110.70;;;51.88;;
23171;SDS011;11754;42.664;23.594;2022-12-16T01:01:10;110.93;;;49.00;;
23171;SDS011;11754;42.664;23.594;2022-12-16T01:03:35;90.13;;;46.10;;
23171;SDS011;11754;42.664;23.594;2022-12-16T01:06:09;84.32;;;44.28;;
23171;SDS011;11754;42.664;23.594;2022-12-16T01:08:39;114.78;;;45.33;;
23171;SDS011;11754;42.664;23.594;2022-12-16T01:11:04;123.93;;;47.55;;
23171;SDS011;11754;42.664;23.594;2022-12-16T01:13:30;88.57;;;45.88;;
23171;SDS011;11754;42.664;23.594;2022-12-16T01:15:58;83.07;;;43.17;;
23171;SDS011;11754;42.664;23.594;2022-12-16T01:18:24;73.10;;;39.38;;
23171;SDS011;11754;42.664;23.594;2022-12-16T01:20:49;52.63;;;32.38;;
23171;SDS011;11754;42.664;23.594;2022-12-16T01:23:15;50.15;;;29.90;;
23171;SDS011;11754;42.664;23.594;2022-12-16T01:25:41;48.05;;;28.90;;
23171;SDS011;11754;42.664;23.594;2022-12-16T01:28:06;50.20;;;29.83;;
23171;SDS011;11754;42.664;23.594;2022-12-16T01:30:31;39.13;;;24.60;;
23171;SDS011;11754;42.664;23.594;2022-12-16T01:32:57;39.17;;;24.42;;
23171;SDS011;11754;42.664;23.594;2022-12-16T01:35:22;49.35;;;29.10;;
23171;SDS011;11754;42.664;23.594;2022-12-16T01:37:48;46.95;;;28.10;;
23171;SDS011;11754;42.664;23.594;2022-12-16T01:40:15;49.13;;;29.77;;
23171;SDS011;11754;42.664;23.594;2022-12-16T01:42:43;58.38;;;33.42;;
23171;SDS011;11754;42.664;23.594;2022-12-16T01:45:28;67.93;;;39.28;;
23171;SDS011;11754;42.664;23.594;2022-12-16T01:47:53;72.70;;;39.15;;
23171;SDS011;11754;42.664;23.594;2022-12-16T01:50:23;51.33;;;30.95;;
23171;SDS011;11754;42.664;23.594;2022-12-16T01:52:51;43.17;;;27.30;;
23171;SDS011;11754;42.664;23.594;2022-12-16T01:55:21;39.45;;;25.13;;
23171;SDS011;11754;42.664;23.594;2022-12-16T01:58:26;34.33;;;21.67;;
23171;SDS011;11754;42.664;23.594;2022-12-16T02:00:55;43.17;;;27.75;;
23171;SDS011;11754;42.664;23.594;2022-12-16T02:03:22;34.65;;;22.08;;
23171;SDS011;11754;42.664;23.594;2022-12-16T02:05:48;54.90;;;31.10;;
23171;SDS011;11754;42.664;23.594;2022-12-16T02:08:15;100.22;;;40.15;;
23171;SDS011;11754;42.664;23.594;2022-12-16T02:23:53;92.28;;;51.53;;
23171;SDS011;11754;42.664;23.594;2022-12-16T02:26:55;69.78;;;39.15;;
23171;SDS011;11754;42.664;23.594;2022-12-16T02:38:31;64.73;;;37.07;;
23171;SDS011;11754;42.664;23.594;2022-12-16T02:41:03;62.53;;;35.72;;
23171;SDS011;11754;42.664;23.594;2022-12-16T02:46:18;60.65;;;36.10;;
23171;SDS011;11754;42.664;23.594;2022-12-16T02:48:47;64.30;;;37.28;;
23171;SDS011;11754;42.664;23.594;2022-12-16T02:51:13;59.00;;;36.90;;
23171;SDS011;11754;42.664;23.594;2022-12-16T02:53:39;56.00;;;32.60;;
23171;SDS011;11754;42.664;23.594;2022-12-16T03:01:57;44.90;;;27.02;;
23171;SDS011;11754;42.664;23.594;2022-12-16T03:04:50;38.47;;;22.88;;
23171;SDS011;11754;42.664;23.594;2022-12-16T03:07:14;34.83;;;20.83;;
23171;SDS011;11754;42.664;23.594;2022-12-16T03:09:42;29.48;;;18.95;;
23171;SDS011;11754;42.664;23.594;2022-12-16T03:12:12;33.92;;;20.30;;
23171;SDS011;11754;42.664;23.594;2022-12-16T03:14:41;31.08;;;19.38;;
23171;SDS011;11754;42.664;23.594;2022-12-16T03:17:09;64.15;;;38.58;;
23171;SDS011;11754;42.664;23.594;2022-12-16T03:19:37;56.35;;;36.65;;
23171;SDS011;11754;42.664;23.594;2022-12-16T03:22:12;61.22;;;36.60;;
23171;SDS011;11754;42.664;23.594;2022-12-16T03:24:42;60.28;;;33.88;;
23171;SDS011;11754;42.664;23.594;2022-12-16T03:27:11;63.45;;;33.08;;
23171;SDS011;11754;42.664;23.594;2022-12-16T03:29:44;63.15;;;36.08;;
23171;SDS011;11754;42.664;23.594;2022-12-16T03:32:21;90.70;;;37.92;;
23171;SDS011;11754;42.664;23.594;2022-12-16T03:37:31;96.47;;;41.97;;
23171;SDS011;11754;42.664;23.594;2022-12-16T03:39:59;111.88;;;44.63;;
23171;SDS011;11754;42.664;23.594;2022-12-16T03:42:27;151.07;;;44.25;;
23171;SDS011;11754;42.664;23.594;2022-12-16T03:44:54;138.93;;;47.45;;
23171;SDS011;11754;42.664;23.594;2022-12-16T03:47:21;159.38;;;47.85;;
23171;SDS011;11754;42.664;23.594;2022-12-16T03:49:49;120.78;;;48.60;;
23171;SDS011;11754;42.664;23.594;2022-12-16T03:52:15;99.03;;;47.33;;
23171;SDS011;11754;42.664;23.594;2022-12-16T03:54:40;113.90;;;49.97;;
23171;SDS011;11754;42.664;23.594;2022-12-16T03:57:05;89.55;;;46.65;;
23171;SDS011;11754;42.664;23.594;2022-12-16T03:59:31;64.00;;;37.67;;
23171;SDS011;11754;42.664;23.594;2022-12-16T04:01:56;69.90;;;40.17;;
23171;SDS011;11754;42.664;23.594;2022-12-16T04:04:22;101.53;;;50.42;;
23171;SDS011;11754;42.664;23.594;2022-12-16T04:06:47;98.43;;;49.05;;
23171;SDS011;11754;42.664;23.594;2022-12-16T04:09:33;81.43;;;45.67;;
23171;SDS011;11754;42.664;23.594;2022-12-16T04:11:58;74.80;;;45.10;;
23171;SDS011;11754;42.664;23.594;2022-12-16T04:14:42;73.60;;;43.28;;
23171;SDS011;11754;42.664;23.594;2022-12-16T04:17:26;34.45;;;21.75;;
23171;SDS011;11754;42.664;23.594;2022-12-16T04:20:14;25.30;;;16.30;;
23171;SDS011;11754;42.664;23.594;2022-12-16T04:22:59;29.88;;;18.77;;
23171;SDS011;11754;42.664;23.594;2022-12-16T04:25:43;30.52;;;17.77;;
23171;SDS011;11754;42.664;23.594;2022-12-16T04:28:09;35.25;;;20.30;;
23171;SDS011;11754;42.664;23.594;2022-12-16T04:30:34;27.10;;;17.23;;
23171;SDS011;11754;42.664;23.594;2022-12-16T04:33:00;25.77;;;16.80;;
23171;SDS011;11754;42.664;23.594;2022-12-16T04:35:48;126.65;;;53.05;;
23171;SDS011;11754;42.664;23.594;2022-12-16T04:38:32;167.00;;;51.22;;
23171;SDS011;11754;42.664;23.594;2022-12-16T04:41:16;177.32;;;47.83;;
23171;SDS011;11754;42.664;23.594;2022-12-16T04:44:00;165.20;;;51.00;;
23171;SDS011;11754;42.664;23.594;2022-12-16T04:46:44;183.70;;;54.58;;
23171;SDS011;11754;42.664;23.594;2022-12-16T04:49:28;149.95;;;56.10;;
23171;SDS011;11754;42.664;23.594;2022-12-16T04:52:12;240.23;;;62.17;;
23171;SDS011;11754;42.664;23.594;2022-12-16T04:54:56;135.15;;;58.50;;
23171;SDS011;11754;42.664;23.594;2022-12-16T04:57:39;138.20;;;57.22;;
23171;SDS011;11754;42.664;23.594;2022-12-16T05:00:23;155.25;;;55.17;;
23171;SDS011;11754;42.664;23.594;2022-12-16T05:03:07;135.60;;;56.72;;
23171;SDS011;11754;42.664;23.594;2022-12-16T05:05:51;85.45;;;41.00;;
23171;SDS011;11754;42.664;23.594;2022-12-16T05:08:35;67.25;;;36.50;;
23171;SDS011;11754;42.664;23.594;2022-12-16T05:11:20;77.88;;;42.55;;
23171;SDS011;11754;42.664;23.594;2022-12-16T05:14:04;40.97;;;23.27;;
23171;SDS011;11754;42.664;23.594;2022-12-16T05:16:48;28.15;;;18.20;;
23171;SDS011;11754;42.664;23.594;2022-12-16T05:19:32;26.38;;;17.02;;
23171;SDS011;11754;42.664;23.594;2022-12-16T05:22:16;117.53;;;48.40;;
23171;SDS011;11754;42.664;23.594;2022-12-16T05:24:59;81.10;;;41.92;;
23171;SDS011;11754;42.664;23.594;2022-12-16T05:27:43;25.25;;;16.58;;
23171;SDS011;11754;42.664;23.594;2022-12-16T05:30:28;24.83;;;15.43;;
23171;SDS011;11754;42.664;23.594;2022-12-16T05:33:11;28.42;;;19.25;;
23171;SDS011;11754;42.664;23.594;2022-12-16T05:35:55;123.90;;;49.55;;
23171;SDS011;11754;42.664;23.594;2022-12-16T05:38:39;108.38;;;49.25;;
23171;SDS011;11754;42.664;23.594;2022-12-16T05:41:23;98.47;;;50.80;;
23171;SDS011;11754;42.664;23.594;2022-12-16T05:44:07;91.88;;;51.15;;
23171;SDS011;11754;42.664;23.594;2022-12-16T05:46:51;105.78;;;53.50;;
23171;SDS011;11754;42.664;23.594;2022-12-16T05:49:35;83.03;;;46.30;;
23171;SDS011;11754;42.664;23.594;2022-12-16T05:52:19;36.58;;;19.48;;
23171;SDS011;11754;42.664;23.594;2022-12-16T05:55:03;40.55;;;19.85;;
23171;SDS011;11754;42.664;23.594;2022-12-16T05:57:49;37.05;;;19.25;;
23171;SDS011;11754;42.664;23.594;2022-12-16T06:00:33;30.20;;;16.10;;
23171;SDS011;11754;42.664;23.594;2022-12-16T06:03:17;36.25;;;19.20;;
23171;SDS011;11754;42.664;23.594;2022-12-16T06:06:01;34.70;;;19.38;;
23171;SDS011;11754;42.664;23.594;2022-12-16T06:08:45;26.33;;;17.15;;
23171;SDS011;11754;42.664;23.594;2022-12-16T06:11:29;26.23;;;16.88;;
23171;SDS011;11754;42.664;23.594;2022-12-16T06:14:12;27.52;;;17.70;;
23171;SDS011;11754;42.664;23.594;2022-12-16T06:16:56;26.40;;;16.55;;
23171;SDS011;11754;42.664;23.594;2022-12-16T06:19:40;29.80;;;18.05;;
23171;SDS011;11754;42.664;23.594;2022-12-16T06:22:24;24.90;;;15.40;;
23171;SDS011;11754;42.664;23.594;2022-12-16T06:25:08;28.13;;;18.52;;
23171;SDS011;11754;42.664;23.594;2022-12-16T06:27:52;28.73;;;16.95;;
23171;SDS011;11754;42.664;23.594;2022-12-16T06:30:36;29.63;;;18.17;;
23171;SDS011;11754;42.664;23.594;2022-12-16T06:33:21;32.95;;;19.85;;
23171;SDS011;11754;42.664;23.594;2022-12-16T06:36:05;32.00;;;19.60;;
23171;SDS011;11754;42.664;23.594;2022-12-16T06:38:50;29.73;;;19.23;;
23171;SDS011;11754;42.664;23.594;2022-12-16T06:41:33;32.10;;;19.27;;
23171;SDS011;11754;42.664;23.594;2022-12-16T06:44:17;31.27;;;20.45;;
23171;SDS011;11754;42.664;23.594;2022-12-16T06:47:01;29.80;;;19.52;;
23171;SDS011;11754;42.664;23.594;2022-12-16T06:49:45;27.25;;;18.13;;
23171;SDS011;11754;42.664;23.594;2022-12-16T06:52:29;25.17;;;16.50;;
23171;SDS011;11754;42.664;23.594;2022-12-16T06:55:13;26.30;;;18.00;;
23171;SDS011;11754;42.664;23.594;2022-12-16T06:57:57;31.75;;;19.65;;
23171;SDS011;11754;42.664;23.594;2022-12-16T07:00:42;26.73;;;17.40;;
23171;SDS011;11754;42.664;23.594;2022-12-16T07:03:26;29.92;;;18.85;;
23171;SDS011;11754;42.664;23.594;2022-12-16T07:06:10;26.73;;;17.70;;
23171;SDS011;11754;42.664;23.594;2022-12-16T07:08:54;26.70;;;16.80;;
23171;SDS011;11754;42.664;23.594;2022-12-16T07:11:38;29.50;;;17.85;;
23171;SDS011;11754;42.664;23.594;2022-12-16T07:14:22;24.38;;;16.92;;
23171;SDS011;11754;42.664;23.594;2022-12-16T07:17:06;23.42;;;15.50;;
23171;SDS011;11754;42.664;23.594;2022-12-16T07:19:50;26.42;;;15.88;;
23171;SDS011;11754;42.664;23.594;2022-12-16T07:22:34;27.23;;;17.90;;
23171;SDS011;11754;42.664;23.594;2022-12-16T07:25:18;23.63;;;15.90;;
23171;SDS011;11754;42.664;23.594;2022-12-16T07:28:02;23.33;;;15.15;;
23171;SDS011;11754;42.664;23.594;2022-12-16T07:30:46;28.08;;;18.70;;
23171;SDS011;11754;42.664;23.594;2022-12-16T07:33:30;25.90;;;16.52;;
23171;SDS011;11754;42.664;23.594;2022-12-16T07:36:14;31.63;;;17.77;;
23171;SDS011;11754;42.664;23.594;2022-12-16T07:38:58;24.90;;;16.05;;
23171;SDS011;11754;42.664;23.594;2022-12-16T07:41:42;22.30;;;14.35;;
23171;SDS011;11754;42.664;23.594;2022-12-16T07:44:26;18.17;;;12.93;;
23171;SDS011;11754;42.664;23.594;2022-12-16T07:47:10;21.58;;;13.75;;
23171;SDS011;11754;42.664;23.594;2022-12-16T07:49:54;19.20;;;13.40;;
23171;SDS011;11754;42.664;23.594;2022-12-16T07:52:38;25.13;;;16.60;;
23171;SDS011;11754;42.664;23.594;2022-12-16T07:55:22;19.80;;;14.07;;
23171;SDS011;11754;42.664;23.594;2022-12-16T07:58:06;15.18;;;10.20;;
23171;SDS011;11754;42.664;23.594;2022-12-16T08:00:51;14.43;;;10.07;;
23171;SDS011;11754;42.664;23.594;2022-12-16T08:03:34;14.95;;;10.27;;
23171;SDS011;11754;42.664;23.594;2022-12-16T08:06:19;14.77;;;9.65;;
23171;SDS011;11754;42.664;23.594;2022-12-16T08:09:02;16.10;;;10.02;;
23171;SDS011;11754;42.664;23.594;2022-12-16T08:11:46;15.82;;;8.57;;
23171;SDS011;11754;42.664;23.594;2022-12-16T08:14:31;14.05;;;9.23;;
23171;SDS011;11754;42.664;23.594;2022-12-16T08:17:15;13.73;;;8.55;;
23171;SDS011;11754;42.664;23.594;2022-12-16T08:19:59;10.77;;;7.72;;
23171;SDS011;11754;42.664;23.594;2022-12-16T08:22:43;13.75;;;8.82;;
23171;SDS011;11754;42.664;23.594;2022-12-16T08:25:27;12.55;;;7.75;;
23171;SDS011;11754;42.664;23.594;2022-12-16T08:28:11;16.08;;;9.60;;
23171;SDS011;11754;42.664;23.594;2022-12-16T08:30:55;11.98;;;7.80;;
23171;SDS011;11754;42.664;23.594;2022-12-16T08:33:39;18.58;;;9.18;;
23171;SDS011;11754;42.664;23.594;2022-12-16T08:36:23;26.48;;;17.45;;
23171;SDS011;11754;42.664;23.594;2022-12-16T08:39:06;71.07;;;45.30;;
23171;SDS011;11754;42.664;23.594;2022-12-16T08:41:50;22.70;;;13.77;;
23171;SDS011;11754;42.664;23.594;2022-12-16T08:44:34;29.73;;;17.13;;
23171;SDS011;11754;42.664;23.594;2022-12-16T08:47:18;14.25;;;9.75;;
23171;SDS011;11754;42.664;23.594;2022-12-16T08:50:03;17.63;;;12.25;;
23171;SDS011;11754;42.664;23.594;2022-12-16T08:52:48;20.38;;;12.85;;
23171;SDS011;11754;42.664;23.594;2022-12-16T08:55:32;28.80;;;16.33;;
23171;SDS011;11754;42.664;23.594;2022-12-16T08:58:16;15.65;;;11.32;;
23171;SDS011;11754;42.664;23.594;2022-12-16T09:01:00;11.32;;;8.18;;
23171;SDS011;11754;42.664;23.594;2022-12-16T09:03:43;12.93;;;9.55;;
23171;SDS011;11754;42.664;23.594;2022-12-16T09:06:27;10.82;;;8.15;;
23171;SDS011;11754;42.664;23.594;2022-12-16T09:09:11;9.57;;;7.35;;
23171;SDS011;11754;42.664;23.594;2022-12-16T09:11:55;10.63;;;8.35;;
23171;SDS011;11754;42.664;23.594;2022-12-16T09:14:39;9.65;;;7.38;;
23171;SDS011;11754;42.664;23.594;2022-12-16T09:17:23;10.25;;;8.50;;
23171;SDS011;11754;42.664;23.594;2022-12-16T09:20:07;10.15;;;8.65;;
23171;SDS011;11754;42.664;23.594;2022-12-16T09:22:52;13.27;;;9.85;;
23171;SDS011;11754;42.664;23.594;2022-12-16T09:25:36;12.90;;;8.07;;
23171;SDS011;11754;42.664;23.594;2022-12-16T09:28:19;10.27;;;8.45;;
23171;SDS011;11754;42.664;23.594;2022-12-16T09:31:03;9.23;;;7.38;;
23171;SDS011;11754;42.664;23.594;2022-12-16T09:33:47;12.13;;;8.68;;
23171;SDS011;11754;42.664;23.594;2022-12-16T09:36:31;10.85;;;7.93;;
23171;SDS011;11754;42.664;23.594;2022-12-16T09:39:15;10.57;;;7.95;;
23171;SDS011;11754;42.664;23.594;2022-12-16T09:42:04;9.02;;;7.35;;
23171;SDS011;11754;42.664;23.594;2022-12-16T09:45:04;10.43;;;7.80;;
23171;SDS011;11754;42.664;23.594;2022-12-16T09:50:52;8.98;;;7.70;;
23171;SDS011;11754;42.664;23.594;2022-12-16T09:53:40;11.40;;;10.18;;
23171;SDS011;11754;42.664;23.594;2022-12-16T09:56:30;9.10;;;8.13;;
23171;SDS011;11754;42.664;23.594;2022-12-16T09:59:21;9.68;;;8.68;;
23171;SDS011;11754;42.664;23.594;2022-12-16T10:02:12;8.07;;;7.05;;
23171;SDS011;11754;42.664;23.594;2022-12-16T10:04:59;7.00;;;5.72;;
23171;SDS011;11754;42.664;23.594;2022-12-16T10:07:45;8.48;;;5.80;;
23171;SDS011;11754;42.664;23.594;2022-12-16T10:10:39;6.93;;;5.65;;
23171;SDS011;11754;42.664;23.594;2022-12-16T10:13:45;7.47;;;5.95;;
23171;SDS011;11754;42.664;23.594;2022-12-16T10:16:50;8.52;;;6.55;;
23171;SDS011;11754;42.664;23.594;2022-12-16T10:25:55;12.15;;;7.97;;
23171;SDS011;11754;42.664;23.594;2022-12-16T10:29:03;8.98;;;6.32;;
23171;SDS011;11754;42.664;23.594;2022-12-16T10:31:55;10.32;;;6.40;;
23171;SDS011;11754;42.664;23.594;2022-12-16T10:34:39;8.52;;;6.85;;
23171;SDS011;11754;42.664;23.594;2022-12-16T10:37:30;7.07;;;5.90;;
23171;SDS011;11754;42.664;23.594;2022-12-16T10:40:18;6.00;;;5.22;;
23171;SDS011;11754;42.664;23.594;2022-12-16T10:43:12;7.47;;;6.10;;
23171;SDS011;11754;42.664;23.594;2022-12-16T10:46:18;6.22;;;5.30;;
23171;SDS011;11754;42.664;23.594;2022-12-16T10:49:07;5.30;;;4.50;;
23171;SDS011;11754;42.664;23.594;2022-12-16T10:51:56;5.65;;;4.60;;
23171;SDS011;11754;42.664;23.594;2022-12-16T10:57:51;6.80;;;4.18;;
23171;SDS011;11754;42.664;23.594;2022-12-16T11:03:26;6.95;;;5.03;;
23171;SDS011;11754;42.664;23.594;2022-12-16T11:06:12;5.90;;;5.05;;
23171;SDS011;11754;42.664;23.594;2022-12-16T11:12:27;7.13;;;4.60;;
23171;SDS011;11754;42.664;23.594;2022-12-16T11:15:23;5.25;;;4.13;;
23171;SDS011;11754;42.664;23.594;2022-12-16T11:18:24;5.63;;;4.53;;
23171;SDS011;11754;42.664;23.594;2022-12-16T11:21:32;8.98;;;6.13;;
23171;SDS011;11754;42.664;23.594;2022-12-16T11:24:20;5.85;;;4.85;;
23171;SDS011;11754;42.664;23.594;2022-12-16T11:27:05;6.40;;;5.15;;
23171;SDS011;11754;42.664;23.594;2022-12-16T11:29:58;6.63;;;5.40;;
23171;SDS011;11754;42.664;23.594;2022-12-16T11:32:46;7.30;;;5.25;;
23171;SDS011;11754;42.664;23.594;2022-12-16T11:35:34;5.07;;;3.90;;
23171;SDS011;11754;42.664;23.594;2022-12-16T11:38:23;5.88;;;4.63;;
23171;SDS011;11754;42.664;23.594;2022-12-16T11:41:14;5.00;;;2.90;;
23171;SDS011;11754;42.664;23.594;2022-12-16T11:44:07;3.85;;;2.90;;
23171;SDS011;11754;42.664;23.594;2022-12-16T11:46:58;4.88;;;3.10;;
23171;SDS011;11754;42.664;23.594;2022-12-16T11:49:42;3.50;;;2.75;;
23171;SDS011;11754;42.664;23.594;2022-12-16T11:52:26;6.63;;;3.40;;
23171;SDS011;11754;42.664;23.594;2022-12-16T11:58:15;5.43;;;3.20;;
23171;SDS011;11754;42.664;23.594;2022-12-16T12:03:55;7.10;;;4.18;;
23171;SDS011;11754;42.664;23.594;2022-12-16T12:10:02;11.43;;;7.13;;
23171;SDS011;11754;42.664;23.594;2022-12-16T12:13:17;7.32;;;5.38;;
23171;SDS011;11754;42.664;23.594;2022-12-16T12:16:18;7.57;;;5.32;;
23171;SDS011;11754;42.664;23.594;2022-12-16T12:19:18;8.10;;;5.82;;
23171;SDS011;11754;42.664;23.594;2022-12-16T12:22:17;7.22;;;5.57;;
23171;SDS011;11754;42.664;23.594;2022-12-16T12:31:01;12.20;;;7.57;;
23171;SDS011;11754;42.664;23.594;2022-12-16T12:33:52;8.82;;;6.40;;
23171;SDS011;11754;42.664;23.594;2022-12-16T12:36:58;9.05;;;7.50;;
23171;SDS011;11754;42.664;23.594;2022-12-16T12:39:58;11.85;;;8.00;;
23171;SDS011;11754;42.664;23.594;2022-12-16T12:42:52;17.58;;;11.77;;
23171;SDS011;11754;42.664;23.594;2022-12-16T12:52:37;11.05;;;8.90;;
23171;SDS011;11754;42.664;23.594;2022-12-16T12:55:31;8.23;;;5.93;;
23171;SDS011;11754;42.664;23.594;2022-12-16T12:58:41;11.20;;;7.60;;
23171;SDS011;11754;42.664;23.594;2022-12-16T13:01:28;9.52;;;6.55;;
23171;SDS011;11754;42.664;23.594;2022-12-16T13:04:16;9.15;;;7.13;;
23171;SDS011;11754;42.664;23.594;2022-12-16T13:07:03;7.85;;;6.43;;
23171;SDS011;11754;42.664;23.594;2022-12-16T13:16:00;9.13;;;6.78;;
23171;SDS011;11754;42.664;23.594;2022-12-16T13:18:45;10.20;;;6.70;;
23171;SDS011;11754;42.664;23.594;2022-12-16T13:27:12;7.40;;;4.70;;
23171;SDS011;11754;42.664;23.594;2022-12-16T13:30:02;7.50;;;5.20;;
23171;SDS011;11754;42.664;23.594;2022-12-16T13:36:12;8.27;;;5.95;;
23171;SDS011;11754;42.664;23.594;2022-12-16T13:38:59;8.13;;;6.72;;
23171;SDS011;11754;42.664;23.594;2022-12-16T13:41:53;11.15;;;6.28;;
23171;SDS011;11754;42.664;23.594;2022-12-16T13:47:30;11.23;;;7.47;;
23171;SDS011;11754;42.664;23.594;2022-12-16T13:53:28;18.75;;;9.18;;
23171;SDS011;11754;42.664;23.594;2022-12-16T13:56:17;53.42;;;26.95;;
23171;SDS011;11754;42.664;23.594;2022-12-16T13:59:10;14.30;;;10.63;;
23171;SDS011;11754;42.664;23.594;2022-12-16T14:02:14;11.90;;;8.65;;
23171;SDS011;11754;42.664;23.594;2022-12-16T14:05:13;14.68;;;10.70;;
23171;SDS011;11754;42.664;23.594;2022-12-16T14:08:02;12.85;;;8.32;;
23171;SDS011;11754;42.664;23.594;2022-12-16T14:10:50;15.63;;;11.25;;
23171;SDS011;11754;42.664;23.594;2022-12-16T14:13:45;15.77;;;10.73;;
23171;SDS011;11754;42.664;23.594;2022-12-16T14:16:42;12.05;;;8.85;;
23171;SDS011;11754;42.664;23.594;2022-12-16T14:25:44;14.75;;;6.63;;
23171;SDS011;11754;42.664;23.594;2022-12-16T14:28:31;11.07;;;6.90;;
23171;SDS011;11754;42.664;23.594;2022-12-16T14:31:24;15.75;;;7.15;;
23171;SDS011;11754;42.664;23.594;2022-12-16T14:34:16;15.65;;;9.20;;
23171;SDS011;11754;42.664;23.594;2022-12-16T14:40:01;13.48;;;8.70;;
23171;SDS011;11754;42.664;23.594;2022-12-16T14:42:48;18.05;;;12.05;;
23171;SDS011;11754;42.664;23.594;2022-12-16T14:45:35;18.73;;;12.20;;
23171;SDS011;11754;42.664;23.594;2022-12-16T14:48:25;22.15;;;13.20;;
23171;SDS011;11754;42.664;23.594;2022-12-16T14:54:18;23.98;;;14.73;;
23171;SDS011;11754;42.664;23.594;2022-12-16T14:57:29;20.65;;;13.48;;
23171;SDS011;11754;42.664;23.594;2022-12-16T15:00:19;24.73;;;14.95;;
23171;SDS011;11754;42.664;23.594;2022-12-16T15:03:19;34.15;;;16.65;;
23171;SDS011;11754;42.664;23.594;2022-12-16T15:06:10;33.13;;;17.87;;
23171;SDS011;11754;42.664;23.594;2022-12-16T15:09:01;19.30;;;12.38;;
23171;SDS011;11754;42.664;23.594;2022-12-16T15:11:48;26.65;;;14.05;;
23171;SDS011;11754;42.664;23.594;2022-12-16T15:14:37;16.38;;;10.13;;
23171;SDS011;11754;42.664;23.594;2022-12-16T15:17:24;17.60;;;10.93;;
23171;SDS011;11754;42.664;23.594;2022-12-16T15:20:16;28.20;;;15.80;;
23171;SDS011;11754;42.664;23.594;2022-12-16T15:23:09;18.30;;;11.82;;
23171;SDS011;11754;42.664;23.594;2022-12-16T15:25:58;20.08;;;11.48;;
23171;SDS011;11754;42.664;23.594;2022-12-16T15:28:42;16.95;;;10.63;;
23171;SDS011;11754;42.664;23.594;2022-12-16T15:31:31;20.15;;;10.70;;
23171;SDS011;11754;42.664;23.594;2022-12-16T15:40:28;21.08;;;14.35;;
23171;SDS011;11754;42.664;23.594;2022-12-16T15:46:21;18.33;;;11.90;;
23171;SDS011;11754;42.664;23.594;2022-12-16T15:49:30;20.98;;;12.93;;
23171;SDS011;11754;42.664;23.594;2022-12-16T15:52:21;20.10;;;13.27;;
23171;SDS011;11754;42.664;23.594;2022-12-16T15:55:27;17.45;;;11.95;;
23171;SDS011;11754;42.664;23.594;2022-12-16T15:58:27;21.15;;;13.35;;
23171;SDS011;11754;42.664;23.594;2022-12-16T16:01:20;18.75;;;12.10;;
23171;SDS011;11754;42.664;23.594;2022-12-16T16:07:17;16.17;;;10.98;;
23171;SDS011;11754;42.664;23.594;2022-12-16T16:10:22;17.98;;;11.40;;
23171;SDS011;11754;42.664;23.594;2022-12-16T16:13:08;16.60;;;10.90;;
23171;SDS011;11754;42.664;23.594;2022-12-16T16:15:53;17.55;;;10.93;;
23171;SDS011;11754;42.664;23.594;2022-12-16T16:18:37;16.50;;;12.13;;
23171;SDS011;11754;42.664;23.594;2022-12-16T16:21:23;16.20;;;11.32;;
23171;SDS011;11754;42.664;23.594;2022-12-16T16:24:07;15.00;;;9.52;;
23171;SDS011;11754;42.664;23.594;2022-12-16T16:26:52;19.98;;;11.48;;
23171;SDS011;11754;42.664;23.594;2022-12-16T16:29:36;22.25;;;13.02;;
23171;SDS011;11754;42.664;23.594;2022-12-16T16:32:21;20.70;;;13.23;;
23171;SDS011;11754;42.664;23.594;2022-12-16T16:35:05;16.85;;;10.65;;
23171;SDS011;11754;42.664;23.594;2022-12-16T16:37:49;20.20;;;11.90;;
23171;SDS011;11754;42.664;23.594;2022-12-16T16:40:37;20.13;;;13.45;;
23171;SDS011;11754;42.664;23.594;2022-12-16T16:43:22;13.80;;;9.25;;
23171;SDS011;11754;42.664;23.594;2022-12-16T16:46:26;18.80;;;10.73;;
23171;SDS011;11754;42.664;23.594;2022-12-16T16:49:20;21.75;;;11.20;;
23171;SDS011;11754;42.664;23.594;2022-12-16T16:52:09;16.75;;;11.60;;
23171;SDS011;11754;42.664;23.594;2022-12-16T16:54:54;27.60;;;13.73;;
23171;SDS011;11754;42.664;23.594;2022-12-16T16:57:38;17.17;;;10.95;;
23171;SDS011;11754;42.664;23.594;2022-12-16T17:00:22;17.13;;;12.07;;
23171;SDS011;11754;42.664;23.594;2022-12-16T17:03:06;12.32;;;9.40;;
23171;SDS011;11754;42.664;23.594;2022-12-16T17:05:53;18.95;;;11.60;;
23171;SDS011;11754;42.664;23.594;2022-12-16T17:08:37;21.10;;;12.10;;
23171;SDS011;11754;42.664;23.594;2022-12-16T17:11:21;18.45;;;11.52;;
23171;SDS011;11754;42.664;23.594;2022-12-16T17:14:09;19.00;;;12.05;;
23171;SDS011;11754;42.664;23.594;2022-12-16T17:16:55;14.00;;;9.88;;
23171;SDS011;11754;42.664;23.594;2022-12-16T17:19:39;30.80;;;16.95;;
23171;SDS011;11754;42.664;23.594;2022-12-16T17:22:23;32.78;;;20.45;;
23171;SDS011;11754;42.664;23.594;2022-12-16T17:25:07;23.00;;;15.52;;
23171;SDS011;11754;42.664;23.594;2022-12-16T17:27:51;17.90;;;12.57;;
23171;SDS011;11754;42.664;23.594;2022-12-16T17:30:35;16.67;;;11.43;;
23171;SDS011;11754;42.664;23.594;2022-12-16T17:33:19;14.88;;;10.15;;
23171;SDS011;11754;42.664;23.594;2022-12-16T17:36:03;18.98;;;12.52;;
23171;SDS011;11754;42.664;23.594;2022-12-16T17:38:47;17.95;;;12.35;;
23171;SDS011;11754;42.664;23.594;2022-12-16T17:41:31;15.35;;;10.73;;